Forest, OH (45843)

12:45 PM EDT on October 01, 2016 (GMT -0400)
Morral | | Change Station

Elev 909 ft 40.67 °N, 83.23 °W | Updated 11 seconds ago

Mostly Cloudy
Mostly Cloudy
65.5 °F
Feels Like 65.5 °F
N
8.3
Wind Variable Wind from South
Gusts 8.3 mph

Today
High -- | Low -- °F
--% Chance of Precip.
Yesterday
High -- | Low -- °F
Precip. -- in
Pressure 30.03 in
Visibility 10.0 miles
Clouds Scattered Clouds 2800 ft
Mostly Cloudy 3600 ft
Dew Point 57 °F
Humidity 73%
Rainfall 0.13 in
Snow Depth Not available.
7:31 AM 7:15 PM
New Moon, 0% visible
SPECI KFDY 011617Z AUTO 17010KT 10SM SCT028 BKN036 18/11 A3003 RMK AO2 T01830111 $
Pressure 30.03 in
Visibility 10.0 miles
Clouds Scattered Clouds 2800 ft
Mostly Cloudy 3600 ft
Dew Point 57 °F
Humidity 73%
Rainfall 0.13 in
Snow Depth Not available.
7:31 AM 7:15 PM
New Moon, 0% visible
SPECI KFDY 011617Z AUTO 17010KT 10SM SCT028 BKN036 18/11 A3003 RMK AO2 T01830111 $

10-Day Weather Forecast

Almanac

Astronomy

Oct. 01, 2016 Rise Set
Actual Time
Civil Twilight
Nautical Twilight
Astronomical Twilight
Moon
Length of Visible Light
Length of Day
Tomorrow will be .
, % of the Moon is Illuminated

Today's Extremes

State Highs State Lows

Community

WunderPhotos

Upload Photos

1,942,962 photos uploaded!

WunderBlog® & News

Nearby

Air Quality

  Air Quality AQ Index Pollutant
Not available.

Snow Depth

Station Depth Elevation

Earthquake Activity

City Distance Mag. Time & Date
Minimum magnitude displayed is 2.5.

Coastal Water Temperatures

Place Temperature

Stations

Nearby Weather Stations

Station Location Temp. Windchill Dew Point Humidity Wind Precip. Elev Updated Type
                   

Watches & Warnings

There are currently no watches in effect.